Time;durP1;ratioP1;P1;durP2;ratioP2;P2;SDS_P1;SDS_P2;PMS_P1;PMS_P2;Temp;Humidity;BMP_temperature;BMP_pressure;BME280_temperature;BME280_humidity;BME280_pressure;Samples;Min_cycle;Max_cycle;Signal;HPM_P1;HPM_P2
2021/06/26 00:00:58;;;;;;;41.65;29.17;;;16.80;99.90;;;;;;4991656;28;20474;-91
2021/06/26 00:03:26;;;;;;;69.18;42.72;;;16.80;99.90;;;;;;4975285;28;20177;-91
2021/06/26 00:05:53;;;;;;;50.20;36.35;;;16.80;99.90;;;;;;4975224;28;20042;-89
2021/06/26 00:08:19;;;;;;;33.28;24.88;;;16.80;99.90;;;;;;4975242;28;20402;-91
2021/06/26 00:10:46;;;;;;;48.05;32.88;;;16.70;99.90;;;;;;4975622;28;20470;-92
2021/06/26 00:13:13;;;;;;;59.88;36.72;;;16.70;99.90;;;;;;4974897;28;20117;-91
2021/06/26 00:15:39;;;;;;;61.42;40.97;;;16.70;99.90;;;;;;4975274;28;20050;-91
2021/06/26 00:18:06;;;;;;;78.88;45.70;;;16.70;99.90;;;;;;4958829;28;20054;-91
2021/06/26 00:20:32;;;;;;;73.30;44.60;;;16.70;99.90;;;;;;4992321;28;20467;-91
2021/06/26 00:22:59;;;;;;;65.80;41.70;;;16.70;99.90;;;;;;4991576;28;20046;-91
2021/06/26 00:25:25;;;;;;;67.65;43.53;;;16.70;99.90;;;;;;4974552;28;20479;-93
2021/06/26 00:27:52;;;;;;;60.67;39.72;;;16.70;99.90;;;;;;4975050;28;20089;-93
2021/06/26 00:30:19;;;;;;;39.42;27.65;;;16.70;99.90;;;;;;4992078;28;20038;-92
2021/06/26 00:32:45;;;;;;;52.28;36.17;;;16.70;99.90;;;;;;4975019;28;20497;-91
2021/06/26 00:35:13;;;;;;;51.55;33.97;;;16.70;99.90;;;;;;4974180;28;20039;-91
2021/06/26 00:37:39;;;;;;;43.38;31.60;;;16.70;99.90;;;;;;4974934;28;20089;-91
2021/06/26 00:40:07;;;;;;;66.07;41.33;;;16.70;99.90;;;;;;4991644;28;20445;-91
2021/06/26 00:42:38;;;;;;;69.00;43.53;;;16.70;99.90;;;;;;4992096;28;20043;-91
2021/06/26 00:45:06;;;;;;;61.75;39.25;;;16.70;99.90;;;;;;4974112;28;20465;-91
2021/06/26 00:47:32;;;;;;;58.45;38.25;;;16.70;99.90;;;;;;4958748;28;20402;-91
2021/06/26 00:49:58;;;;;;;62.42;40.95;;;16.70;99.90;;;;;;4974359;28;20046;-92
2021/06/26 00:52:24;;;;;;;71.10;44.05;;;16.60;99.90;;;;;;4958845;28;20042;-90
2021/06/26 00:54:51;;;;;;;57.38;35.70;;;16.60;99.90;;;;;;4975275;28;20406;-92
2021/06/26 00:57:19;;;;;;;75.90;43.75;;;16.60;99.90;;;;;;4975193;28;20046;-92
2021/06/26 00:59:47;;;;;;;68.00;40.95;;;16.60;99.90;;;;;;4959343;28;20398;-91
2021/06/26 01:02:13;;;;;;;78.97;43.15;;;16.60;99.90;;;;;;4958306;28;20080;-91
2021/06/26 01:04:39;;;;;;;63.22;40.05;;;16.50;99.90;;;;;;4959178;28;20079;-92
2021/06/26 01:07:05;;;;;;;73.00;45.10;;;16.50;99.90;;;;;;4974490;28;20046;-91
2021/06/26 01:09:31;;;;;;;72.57;45.65;;;16.50;99.90;;;;;;4992116;28;20102;-92
2021/06/26 01:11:57;;;;;;;67.30;41.35;;;16.50;99.90;;;;;;4958515;28;20125;-92
2021/06/26 01:14:30;;;;;;;62.92;39.50;;;16.50;99.90;;;;;;4974619;28;20042;-90
2021/06/26 01:17:02;;;;;;;71.05;44.35;;;16.50;99.90;;;;;;4975114;28;20042;-91
2021/06/26 01:19:28;;;;;;;68.18;41.33;;;16.50;99.90;;;;;;4974795;28;20049;-91
2021/06/26 01:21:54;;;;;;;73.72;43.13;;;16.40;99.90;;;;;;4974348;28;20127;-90
2021/06/26 01:24:21;;;;;;;71.88;42.83;;;16.40;99.90;;;;;;4958429;28;20035;-90
2021/06/26 01:26:54;;;;;;;65.00;39.90;;;16.40;99.90;;;;;;4974830;28;20118;-90
2021/06/26 01:29:20;;;;;;;66.28;41.45;;;16.40;99.90;;;;;;4974079;28;20649;-90
2021/06/26 01:31:45;;;;;;;62.45;38.80;;;16.40;99.90;;;;;;4974666;28;20066;-91
2021/06/26 01:34:11;;;;;;;73.53;40.45;;;16.40;99.90;;;;;;4942153;28;20533;-91
2021/06/26 01:36:37;;;;;;;75.45;41.92;;;16.40;99.90;;;;;;4958031;28;20129;-91
2021/06/26 01:39:03;;;;;;;78.68;42.28;;;16.40;99.90;;;;;;4961111;28;20462;-91
2021/06/26 01:41:33;;;;;;;71.40;40.08;;;16.30;99.90;;;;;;4977596;28;20046;-89
2021/06/26 01:44:00;;;;;;;54.33;31.08;;;16.30;99.90;;;;;;4962016;28;20046;-91
2021/06/26 01:46:26;;;;;;;58.97;34.67;;;16.20;99.90;;;;;;4977160;28;20069;-90
2021/06/26 01:48:52;;;;;;;54.92;33.33;;;16.20;99.90;;;;;;4945490;28;20439;-91
2021/06/26 01:51:18;;;;;;;49.22;31.58;;;16.20;99.90;;;;;;4960768;28;20482;-91
2021/06/26 01:53:44;;;;;;;46.50;30.30;;;16.20;99.90;;;;;;4977514;28;20053;-90
2021/06/26 01:56:13;;;;;;;53.35;32.33;;;16.20;99.90;;;;;;4977044;28;20053;-91
2021/06/26 01:58:39;;;;;;;64.00;37.63;;;16.20;99.90;;;;;;4977698;28;20042;-91
2021/06/26 02:01:05;;;;;;;53.72;34.60;;;16.20;99.90;;;;;;4976933;28;20050;-92
2021/06/26 02:03:31;;;;;;;69.68;40.25;;;16.20;99.90;;;;;;4961204;28;20058;-91
2021/06/26 02:05:57;;;;;;;72.88;38.58;;;16.20;99.90;;;;;;4945350;28;20158;-91
2021/06/26 02:08:22;;;;;;;52.10;33.40;;;16.20;99.90;;;;;;4994220;28;20050;-91
2021/06/26 02:10:53;;;;;;;53.03;32.42;;;16.10;99.90;;;;;;4994414;28;20176;-91
2021/06/26 02:13:19;;;;;;;50.00;31.83;;;16.20;99.90;;;;;;4961153;28;20098;-92
2021/06/26 02:15:45;;;;;;;52.55;34.58;;;16.20;99.90;;;;;;4961613;28;20070;-91
2021/06/26 02:18:11;;;;;;;64.05;38.70;;;16.20;99.90;;;;;;4945893;28;20431;-92
2021/06/26 02:20:37;;;;;;;63.05;37.63;;;16.20;99.90;;;;;;4962196;28;20050;-93
2021/06/26 02:23:03;;;;;;;49.33;28.33;;;16.20;99.90;;;;;;4961772;28;20108;-94
2021/06/26 02:25:29;;;;;;;40.58;28.30;;;16.20;99.90;;;;;;4945970;28;20034;-92
2021/06/26 02:27:55;;;;;;;44.90;31.15;;;16.20;99.90;;;;;;4961697;28;20117;-92
2021/06/26 02:30:21;;;;;;;47.33;32.08;;;16.20;99.90;;;;;;4944684;28;20043;-91
2021/06/26 02:32:47;;;;;;;48.40;31.40;;;16.20;99.90;;;;;;4976944;28;20043;-92
2021/06/26 02:35:13;;;;;;;42.13;28.20;;;16.20;99.90;;;;;;4960805;28;20097;-92
2021/06/26 02:37:39;;;;;;;54.05;31.58;;;16.20;99.90;;;;;;4961610;28;20046;-91
2021/06/26 02:40:05;;;;;;;44.20;30.48;;;16.10;99.90;;;;;;4976798;28;20100;-93
2021/06/26 02:42:31;;;;;;;47.75;31.25;;;16.20;99.90;;;;;;4977218;28;20093;-92
2021/06/26 02:44:57;;;;;;;47.15;31.40;;;16.20;99.90;;;;;;4945297;28;20042;-91
2021/06/26 02:47:23;;;;;;;47.65;30.63;;;16.30;99.90;;;;;;4960278;28;20050;-90
2021/06/26 02:49:49;;;;;;;58.17;32.60;;;16.30;99.90;;;;;;4960354;28;20073;-91
2021/06/26 02:52:16;;;;;;;49.15;31.80;;;16.30;99.90;;;;;;4993727;28;20042;-91
2021/06/26 02:54:43;;;;;;;48.13;32.35;;;16.30;99.90;;;;;;4961481;28;20057;-92
2021/06/26 02:57:09;;;;;;;51.22;32.70;;;16.30;99.90;;;;;;4944829;28;20049;-92
2021/06/26 02:59:36;;;;;;;49.40;32.15;;;16.30;99.90;;;;;;4976571;28;20050;-91
2021/06/26 03:02:02;;;;;;;58.70;36.83;;;16.30;99.90;;;;;;4976945;28;20078;-92
2021/06/26 03:04:28;;;;;;;64.93;38.78;;;16.30;99.90;;;;;;4960449;28;20154;-91
2021/06/26 03:06:54;;;;;;;44.40;29.15;;;16.30;99.90;;;;;;4977183;28;20046;-91
2021/06/26 03:09:20;;;;;;;51.60;31.73;;;16.30;99.90;;;;;;4976618;28;20046;-91
2021/06/26 03:11:46;;;;;;;49.70;31.98;;;16.30;99.90;;;;;;4976666;28;20053;-90
2021/06/26 03:14:12;;;;;;;49.60;31.30;;;16.30;99.90;;;;;;4960229;28;20607;-91
2021/06/26 03:16:38;;;;;;;45.28;30.75;;;16.40;99.90;;;;;;4993393;28;20046;-92
2021/06/26 03:19:04;;;;;;;50.35;32.55;;;16.40;99.90;;;;;;4976430;28;20462;-91
2021/06/26 03:21:30;;;;;;;38.20;27.10;;;16.40;99.90;;;;;;4959602;28;20053;-90
2021/06/26 03:23:56;;;;;;;49.03;31.52;;;16.40;99.90;;;;;;4976066;28;20046;-89
2021/06/26 03:26:22;;;;;;;47.92;30.45;;;16.40;99.90;;;;;;4975353;28;20410;-91
2021/06/26 03:28:50;;;;;;;36.58;26.60;;;16.40;99.90;;;;;;4975758;28;20105;-91
2021/06/26 03:31:16;;;;;;;51.83;29.92;;;16.40;99.90;;;;;;4992072;28;20043;-90
2021/06/26 03:33:42;;;;;;;46.35;31.70;;;16.40;99.90;;;;;;4976231;28;20042;-91
2021/06/26 03:36:08;;;;;;;48.72;31.15;;;16.50;99.90;;;;;;4991876;28;20042;-91
2021/06/26 03:38:34;;;;;;;50.67;32.22;;;16.50;99.90;;;;;;4991692;28;20050;-90
2021/06/26 03:41:00;;;;;;;53.08;34.30;;;16.50;99.90;;;;;;4991828;28;20069;-90
2021/06/26 03:43:25;;;;;;;72.78;38.90;;;16.50;99.90;;;;;;4991347;28;20474;-90
2021/06/26 03:45:52;;;;;;;68.15;38.97;;;16.50;99.90;;;;;;4991771;28;20042;-89
2021/06/26 03:48:18;;;;;;;41.08;29.55;;;16.50;99.90;;;;;;4991260;28;20130;-90
2021/06/26 03:50:44;;;;;;;40.42;26.52;;;16.50;99.90;;;;;;4960589;28;20141;-94
2021/06/26 03:53:10;;;;;;;51.60;33.60;;;16.50;99.90;;;;;;4976776;28;20046;-93
2021/06/26 03:55:36;;;;;;;64.00;35.67;;;16.50;99.90;;;;;;4960871;28;20554;-94
2021/06/26 03:58:02;;;;;;;45.10;29.80;;;16.50;99.90;;;;;;4960984;28;20417;-94
2021/06/26 04:00:28;;;;;;;52.08;33.08;;;16.50;99.90;;;;;;4992192;28;20043;-92
2021/06/26 04:02:54;;;;;;;52.58;34.55;;;16.60;99.90;;;;;;4945226;28;20050;-93
2021/06/26 04:05:20;;;;;;;58.03;33.88;;;16.60;99.90;;;;;;4976020;28;20057;-93
2021/06/26 04:07:46;;;;;;;56.67;35.58;;;16.60;99.90;;;;;;4944724;28;20474;-95
2021/06/26 04:10:12;;;;;;;55.10;33.22;;;16.70;99.90;;;;;;4944722;28;20482;-95
2021/06/26 04:12:38;;;;;;;53.92;34.95;;;16.70;99.90;;;;;;4960622;28;20035;-94
2021/06/26 04:15:04;;;;;;;66.82;38.00;;;16.70;99.90;;;;;;4944211;28;20104;-93
2021/06/26 04:17:30;;;;;;;67.05;38.75;;;16.80;99.90;;;;;;4975282;28;20125;-93
2021/06/26 04:19:56;;;;;;;58.75;36.63;;;16.80;99.90;;;;;;4959590;28;20141;-94
2021/06/26 04:22:22;;;;;;;55.20;34.90;;;16.80;99.90;;;;;;4943740;28;20042;-92
2021/06/26 04:24:48;;;;;;;61.25;37.83;;;16.80;99.90;;;;;;4960574;28;20121;-93
2021/06/26 04:27:15;;;;;;;54.97;34.97;;;16.90;99.90;;;;;;4960311;28;20054;-95
2021/06/26 04:29:40;;;;;;;61.20;35.78;;;16.90;99.90;;;;;;4976435;28;20093;-93
2021/06/26 04:32:08;;;;;;;57.55;35.08;;;16.90;99.90;;;;;;4960234;28;20081;-91
2021/06/26 04:34:34;;;;;;;52.92;31.08;;;17.00;99.90;;;;;;4959575;28;20108;-93
2021/06/26 04:37:01;;;;;;;58.00;35.33;;;17.00;99.90;;;;;;4943640;28;20065;-91
2021/06/26 04:39:26;;;;;;;55.35;34.03;;;17.00;99.90;;;;;;4974346;28;20449;-90
2021/06/26 04:41:52;;;;;;;56.25;35.00;;;17.00;99.90;;;;;;4958594;28;20038;-92
2021/06/26 04:44:18;;;;;;;59.60;34.90;;;17.10;99.90;;;;;;4974240;28;20043;-91
2021/06/26 04:46:44;;;;;;;61.42;34.70;;;17.10;99.90;;;;;;4958516;28;20084;-91
2021/06/26 04:49:10;;;;;;;54.33;34.00;;;17.20;99.90;;;;;;4958605;28;20054;-90
2021/06/26 04:51:37;;;;;;;58.88;35.85;;;17.20;99.90;;;;;;4973837;28;20149;-91
2021/06/26 04:54:04;;;;;;;53.05;32.97;;;17.30;99.90;;;;;;4974581;28;20507;-92
2021/06/26 04:56:29;;;;;;;53.80;33.03;;;17.30;99.90;;;;;;4943040;28;20406;-90
2021/06/26 04:58:55;;;;;;;48.30;31.92;;;17.40;99.90;;;;;;4958784;28;20095;-91
2021/06/26 05:01:21;;;;;;;53.13;34.40;;;17.50;99.90;;;;;;4942606;28;20042;-91
2021/06/26 05:03:47;;;;;;;50.45;31.52;;;17.60;99.90;;;;;;4958891;28;20050;-92
2021/06/26 05:06:13;;;;;;;52.97;32.78;;;17.70;99.90;;;;;;4959009;28;20045;-92
2021/06/26 05:08:39;;;;;;;45.65;29.67;;;17.80;99.90;;;;;;4958813;28;20042;-90
2021/06/26 05:11:06;;;;;;;45.17;30.48;;;17.90;99.90;;;;;;4974511;28;20335;-91
2021/06/26 05:13:32;;;;;;;42.92;29.65;;;18.00;99.90;;;;;;4945598;28;20096;-91
2021/06/26 05:15:58;;;;;;;55.40;33.85;;;18.00;99.90;;;;;;4995493;28;20050;-91
2021/06/26 05:18:27;;;;;;;55.67;34.40;;;18.10;99.90;;;;;;4977403;28;20242;-91
2021/06/26 05:20:54;;;;;;;50.90;33.60;;;18.20;99.90;;;;;;4978110;28;20062;-91
2021/06/26 05:23:20;;;;;;;56.10;32.38;;;18.10;99.90;;;;;;4977932;28;20117;-91
2021/06/26 05:25:46;;;;;;;53.33;33.42;;;18.10;99.90;;;;;;4978187;28;20453;-92
2021/06/26 05:28:13;;;;;;;52.95;32.67;;;18.10;99.90;;;;;;4978802;28;20043;-91
2021/06/26 05:30:39;;;;;;;51.53;32.70;;;18.20;99.90;;;;;;4945390;28;20101;-91
2021/06/26 05:33:06;;;;;;;55.95;34.17;;;18.20;99.90;;;;;;4977876;28;20042;-91
2021/06/26 05:35:34;;;;;;;53.35;35.20;;;18.20;99.90;;;;;;4994517;28;20050;-92
2021/06/26 05:38:00;;;;;;;50.47;33.50;;;18.30;99.90;;;;;;4977910;28;20099;-92
2021/06/26 05:40:26;;;;;;;52.33;34.22;;;18.30;99.90;;;;;;4961599;28;20050;-92
2021/06/26 05:42:52;;;;;;;52.20;33.03;;;18.30;99.90;;;;;;4995309;28;20043;-93
2021/06/26 05:45:18;;;;;;;46.45;31.15;;;18.40;99.90;;;;;;4995517;28;20043;-93
2021/06/26 05:47:44;;;;;;;46.45;30.05;;;18.40;99.90;;;;;;4961811;28;20065;-91
2021/06/26 05:50:10;;;;;;;48.80;30.67;;;18.50;99.90;;;;;;4961905;28;20507;-92
2021/06/26 05:52:51;;;;;;;43.08;28.13;;;18.60;99.90;;;;;;4977582;28;20089;-92
2021/06/26 05:55:18;;;;;;;49.90;30.60;;;18.70;99.90;;;;;;4995594;28;20045;-91
2021/06/26 05:57:44;;;;;;;48.58;31.00;;;18.80;99.90;;;;;;4961264;28;20410;-92
2021/06/26 06:00:12;;;;;;;53.22;32.58;;;18.80;99.90;;;;;;4994959;28;20061;-91
2021/06/26 06:02:38;;;;;;;42.10;29.02;;;18.90;99.90;;;;;;4976573;28;20125;-91
2021/06/26 06:05:07;;;;;;;46.05;30.67;;;19.00;99.90;;;;;;4961427;28;20078;-92
2021/06/26 06:07:34;;;;;;;47.13;29.98;;;19.10;99.90;;;;;;4976895;28;20200;-91
2021/06/26 06:10:01;;;;;;;54.60;33.22;;;19.20;99.90;;;;;;4977255;28;20050;-91
2021/06/26 06:12:27;;;;;;;51.38;32.72;;;19.30;99.90;;;;;;4960814;28;20042;-92
2021/06/26 06:14:53;;;;;;;48.35;30.95;;;19.40;99.90;;;;;;4978018;28;20104;-92
2021/06/26 06:17:18;;;;;;;53.78;32.78;;;19.50;99.90;;;;;;4977681;28;20046;-91
2021/06/26 06:19:44;;;;;;;51.92;32.53;;;19.60;99.90;;;;;;4993029;28;20125;-91
2021/06/26 06:22:10;;;;;;;53.83;33.53;;;19.60;99.90;;;;;;4977121;28;20042;-91
2021/06/26 06:24:36;;;;;;;47.40;32.10;;;19.70;99.90;;;;;;4976880;28;20046;-91
2021/06/26 06:27:02;;;;;;;49.35;30.95;;;19.80;99.90;;;;;;4977508;28;20446;-92
2021/06/26 06:29:29;;;;;;;53.28;31.67;;;20.00;99.90;;;;;;4976942;28;20502;-90
2021/06/26 06:31:54;;;;;;;52.33;31.80;;;20.10;99.90;;;;;;4961386;28;20046;-92
2021/06/26 06:34:20;;;;;;;47.50;30.13;;;20.20;99.90;;;;;;4977475;28;20046;-91
2021/06/26 06:36:46;;;;;;;48.28;32.85;;;20.20;99.90;;;;;;4960315;28;20118;-91
2021/06/26 06:39:13;;;;;;;57.10;32.58;;;20.20;99.90;;;;;;4976531;28;20479;-91
2021/06/26 06:41:39;;;;;;;43.70;29.77;;;20.20;99.90;;;;;;4992569;28;20050;-91
2021/06/26 06:44:05;;;;;;;52.38;32.20;;;20.20;99.90;;;;;;4960649;28;20057;-92
2021/06/26 06:46:30;;;;;;;51.72;30.42;;;20.30;99.90;;;;;;4976101;28;20050;-92
2021/06/26 06:48:56;;;;;;;45.22;28.35;;;20.40;99.90;;;;;;4960172;28;20050;-91
2021/06/26 06:51:22;;;;;;;50.25;31.48;;;20.50;99.90;;;;;;4976204;28;20043;-91
2021/06/26 06:53:48;;;;;;;46.20;29.35;;;20.60;99.90;;;;;;4991512;28;20053;-91
2021/06/26 06:56:14;;;;;;;43.15;28.73;;;20.60;99.90;;;;;;4960656;28;20042;-92
2021/06/26 06:58:40;;;;;;;46.95;27.85;;;20.70;99.90;;;;;;4960692;28;20042;-91
2021/06/26 07:01:06;;;;;;;46.85;28.73;;;20.80;99.90;;;;;;4960885;28;20042;-91
2021/06/26 07:03:32;;;;;;;47.55;30.65;;;21.00;99.90;;;;;;4976451;28;20117;-92
2021/06/26 07:05:58;;;;;;;52.00;31.02;;;20.90;99.90;;;;;;4993377;28;20046;-93
2021/06/26 07:08:24;;;;;;;49.35;32.95;;;21.00;99.90;;;;;;4944105;28;20060;-90
2021/06/26 07:10:50;;;;;;;57.40;33.75;;;21.10;99.90;;;;;;4975450;28;20073;-92
2021/06/26 07:13:16;;;;;;;56.42;33.95;;;21.10;99.90;;;;;;4943610;28;20641;-91
2021/06/26 07:15:42;;;;;;;55.08;33.42;;;21.10;99.90;;;;;;4975215;28;20125;-93
2021/06/26 07:18:08;;;;;;;53.10;33.92;;;21.20;99.90;;;;;;4975941;28;20129;-92
2021/06/26 07:20:33;;;;;;;48.58;32.25;;;21.30;99.90;;;;;;4975953;28;20122;-93
2021/06/26 07:22:59;;;;;;;48.10;34.00;;;21.30;99.90;;;;;;4976236;28;20038;-93
2021/06/26 07:25:25;;;;;;;42.42;29.50;;;21.40;99.90;;;;;;4977041;28;20494;-94
2021/06/26 07:27:51;;;;;;;42.03;30.05;;;21.70;99.90;;;;;;4992856;28;20475;-92
2021/06/26 07:30:18;;;;;;;43.72;29.42;;;21.80;99.90;;;;;;4977207;28;20054;-92
2021/06/26 07:32:46;;;;;;;49.70;31.02;;;21.90;99.90;;;;;;4960012;28;20035;-94
2021/06/26 07:35:14;;;;;;;47.10;31.90;;;21.90;99.90;;;;;;4975691;28;20081;-92
2021/06/26 07:37:40;;;;;;;49.53;31.30;;;21.90;99.90;;;;;;4959778;28;20054;-93
2021/06/26 07:40:07;;;;;;;44.55;31.02;;;22.00;99.90;;;;;;4976025;28;20058;-93
2021/06/26 07:42:33;;;;;;;44.95;31.48;;;22.00;99.90;;;;;;4975721;28;20062;-92
2021/06/26 07:45:00;;;;;;;44.85;29.33;;;22.00;99.90;;;;;;4975815;28;20042;-92
2021/06/26 07:47:26;;;;;;;42.42;27.35;;;22.00;99.90;;;;;;4943931;28;20450;-94
2021/06/26 07:49:52;;;;;;;40.50;29.15;;;22.00;99.90;;;;;;4975565;28;20116;-92
2021/06/26 07:52:18;;;;;;;42.65;28.30;;;22.10;99.90;;;;;;4960232;28;20120;-93
2021/06/26 07:54:44;;;;;;;43.17;28.20;;;22.00;99.90;;;;;;4944000;28;20478;-94
2021/06/26 07:57:10;;;;;;;34.92;25.85;;;22.10;99.90;;;;;;4944054;28;20406;-94
2021/06/26 07:59:35;;;;;;;39.95;26.85;;;22.10;99.90;;;;;;4959220;28;20077;-92
2021/06/26 08:02:02;;;;;;;42.70;27.17;;;22.30;99.90;;;;;;4959506;28;20069;-94
2021/06/26 08:04:28;;;;;;;34.30;25.02;;;22.40;99.90;;;;;;4960125;28;20042;-92
2021/06/26 08:06:54;;;;;;;32.33;23.77;;;22.50;99.90;;;;;;4959604;28;20039;-93
2021/06/26 08:09:20;;;;;;;41.83;26.60;;;22.60;99.90;;;;;;4993374;28;20046;-92
2021/06/26 08:11:45;;;;;;;30.17;20.95;;;22.50;99.90;;;;;;4943934;28;20066;-94
2021/06/26 08:14:11;;;;;;;43.50;24.77;;;22.60;99.90;;;;;;4943966;28;20038;-93
2021/06/26 08:16:37;;;;;;;31.63;23.55;;;22.80;99.90;;;;;;4958858;28;20405;-94
2021/06/26 08:19:04;;;;;;;30.88;22.17;;;23.10;99.90;;;;;;4959936;28;20545;-95
2021/06/26 08:21:30;;;;;;;32.55;21.90;;;23.10;99.90;;;;;;4959855;28;20129;-92
2021/06/26 08:23:56;;;;;;;27.73;19.58;;;23.20;99.90;;;;;;4975364;28;20468;-93
2021/06/26 08:26:22;;;;;;;35.28;20.17;;;23.40;99.90;;;;;;4975445;28;20046;-93
2021/06/26 08:28:48;;;;;;;28.42;20.75;;;23.40;99.90;;;;;;4992398;28;20038;-93
2021/06/26 08:31:15;;;;;;;32.05;19.90;;;23.40;99.90;;;;;;4975526;28;20109;-94
2021/06/26 08:33:41;;;;;;;35.83;23.30;;;23.50;99.90;;;;;;4974757;28;20043;-91
2021/06/26 08:36:07;;;;;;;44.10;27.25;;;23.60;99.90;;;;;;4992500;28;20112;-94
2021/06/26 08:38:33;;;;;;;45.97;25.77;;;23.60;99.90;;;;;;4991267;28;20426;-92
2021/06/26 08:40:59;;;;;;;36.95;23.73;;;23.70;99.90;;;;;;4976508;28;20085;-93
2021/06/26 08:43:27;;;;;;;34.63;25.58;;;23.70;99.90;;;;;;4959362;28;20109;-93
2021/06/26 08:45:54;;;;;;;40.63;25.42;;;23.80;99.90;;;;;;4974519;28;20045;-93
2021/06/26 08:48:20;;;;;;;38.00;27.42;;;24.00;99.90;;;;;;4994000;28;20147;-95
2021/06/26 08:50:46;;;;;;;45.35;28.38;;;24.10;99.90;;;;;;4961857;28;20141;-96
2021/06/26 08:53:12;;;;;;;50.38;27.35;;;23.80;99.90;;;;;;4978618;28;20442;-93
2021/06/26 08:55:38;;;;;;;42.78;26.10;;;23.70;99.90;;;;;;4962346;28;20104;-94
2021/06/26 08:58:05;;;;;;;37.88;26.08;;;23.50;99.90;;;;;;4978600;28;20046;-94
2021/06/26 09:00:32;;;;;;;36.80;25.65;;;23.30;99.90;;;;;;4995142;28;20084;-94
2021/06/26 09:03:11;;;;;;;37.17;23.83;;;23.40;99.90;;;;;;4995102;28;20072;-94
2021/06/26 09:05:39;;;;;;;36.80;24.50;;;23.50;99.90;;;;;;4962513;28;20441;-94
2021/06/26 09:08:09;;;;;;;41.10;25.27;;;24.00;99.90;;;;;;4978852;28;20402;-94
2021/06/26 09:10:36;;;;;;;36.38;23.05;;;24.20;99.90;;;;;;4978055;28;20051;-93
2021/06/26 09:13:16;;;;;;;41.70;27.52;;;24.40;99.90;;;;;;4994717;28;20046;-93
2021/06/26 09:15:43;;;;;;;42.70;27.50;;;24.60;99.90;;;;;;4962998;28;20046;-95
2021/06/26 09:18:18;;;;;;;36.22;24.20;;;24.70;99.90;;;;;;4995856;28;20546;-93
2021/06/26 09:20:48;;;;;;;39.92;26.13;;;24.80;99.90;;;;;;4978043;28;20054;-95
2021/06/26 09:23:18;;;;;;;41.78;25.95;;;24.80;99.90;;;;;;4995851;28;20508;-93
2021/06/26 09:25:45;;;;;;;33.30;23.92;;;24.80;99.90;;;;;;4994300;28;20494;-93
2021/06/26 09:28:22;;;;;;;37.10;24.73;;;24.70;99.90;;;;;;4994719;28;20098;-93
2021/06/26 09:30:48;;;;;;;41.47;28.02;;;24.90;99.90;;;;;;4977784;28;20130;-95
2021/06/26 09:33:18;;;;;;;33.05;23.55;;;25.10;99.90;;;;;;4994768;28;20056;-94
2021/06/26 09:36:05;;;;;;;31.30;21.60;;;25.10;99.90;;;;;;4994293;28;20131;-95
2021/06/26 09:38:32;;;;;;;30.77;21.27;;;25.40;99.90;;;;;;4994717;28;20050;-94
2021/06/26 09:41:10;;;;;;;32.42;23.83;;;25.70;99.90;;;;;;4993814;28;20046;-95
2021/06/26 09:43:36;;;;;;;32.22;21.92;;;25.80;99.90;;;;;;4977889;28;20105;-93
2021/06/26 09:46:14;;;;;;;37.35;23.02;;;25.90;99.90;;;;;;4961589;28;20038;-93
2021/06/26 09:49:06;;;;;;;30.98;21.48;;;25.90;99.90;;;;;;4992474;28;20503;-94
2021/06/26 09:51:33;;;;;;;34.65;24.17;;;25.80;99.90;;;;;;4975011;28;20186;-94
2021/06/26 09:54:00;;;;;;;31.65;22.10;;;25.80;99.90;;;;;;4976419;28;20050;-95
2021/06/26 09:56:44;;;;;;;26.23;18.60;;;25.90;99.90;;;;;;4961374;28;20053;-94
2021/06/26 09:59:12;;;;;;;28.75;20.15;;;26.10;99.90;;;;;;4960457;28;20064;-94
2021/06/26 10:01:42;;;;;;;27.92;20.17;;;26.30;99.90;;;;;;4976953;28;20117;-94
2021/06/26 10:04:14;;;;;;;30.92;20.05;;;26.50;99.90;;;;;;4976948;28;20042;-95
2021/06/26 10:06:41;;;;;;;24.67;17.67;;;26.50;99.90;;;;;;4994262;28;20117;-94
2021/06/26 10:09:08;;;;;;;27.33;21.27;;;26.70;99.90;;;;;;4960353;28;20081;-93
2021/06/26 10:11:36;;;;;;;28.02;19.95;;;26.70;99.90;;;;;;4994228;28;20050;-94
2021/06/26 10:14:07;;;;;;;27.70;18.80;;;26.70;99.90;;;;;;4975726;28;20069;-95
2021/06/26 10:16:35;;;;;;;25.25;18.00;;;26.70;99.90;;;;;;4960367;28;20054;-94
2021/06/26 10:19:04;;;;;;;25.27;19.23;;;26.60;99.90;;;;;;4959317;28;20042;-95
2021/06/26 10:21:30;;;;;;;22.33;16.00;;;26.40;99.90;;;;;;4976221;28;20125;-93
2021/06/26 10:24:01;;;;;;;25.85;18.23;;;26.30;99.90;;;;;;4975698;28;20050;-94
2021/06/26 10:26:28;;;;;;;25.70;19.20;;;26.20;99.90;;;;;;4993219;28;20106;-93
2021/06/26 10:29:01;;;;;;;27.10;18.67;;;26.30;99.90;;;;;;4975642;28;20141;-90
2021/06/26 10:31:33;;;;;;;23.45;17.02;;;26.30;99.90;;;;;;4977427;28;20502;-92
2021/06/26 10:34:19;;;;;;;22.67;15.10;;;26.40;99.90;;;;;;4992798;28;20046;-90
2021/06/26 10:36:51;;;;;;;20.05;15.35;;;26.20;99.90;;;;;;4992917;28;20046;-91
2021/06/26 10:39:26;;;;;;;23.45;15.75;;;26.20;99.90;;;;;;4976258;28;20066;-92
2021/06/26 10:42:07;;;;;;;25.00;14.77;;;26.10;99.90;;;;;;4974485;28;20046;-88
2021/06/26 10:44:49;;;;;;;22.45;16.63;;;26.20;99.90;;;;;;4992156;28;20380;-88
2021/06/26 10:47:35;;;;;;;21.55;15.38;;;26.10;99.90;;;;;;4934022;28;1203374;-92
2021/06/26 10:50:15;;;;;;;19.85;13.27;;;26.20;99.90;;;;;;4975764;28;20046;-88
2021/06/26 10:52:55;;;;;;;23.98;15.13;;;26.30;99.90;;;;;;4976563;28;20093;-94
2021/06/26 10:55:40;;;;;;;16.63;14.23;;;26.40;99.90;;;;;;4993160;28;20049;-91
2021/06/26 10:58:06;;;;;;;22.65;14.57;;;26.40;99.90;;;;;;4975807;28;20068;-91
2021/06/26 11:00:40;;;;;;;16.33;12.70;;;26.30;99.90;;;;;;4975272;28;20039;-91
2021/06/26 11:03:18;;;;;;;19.10;14.63;;;26.50;99.90;;;;;;4974813;28;20038;-90
2021/06/26 11:05:45;;;;;;;15.55;13.05;;;26.30;99.90;;;;;;4975781;28;20050;-93
2021/06/26 11:08:14;;;;;;;16.88;12.85;;;26.40;99.90;;;;;;4975376;28;20078;-90
2021/06/26 11:11:00;;;;;;;19.15;12.00;;;26.40;99.90;;;;;;4991981;28;20050;-91
2021/06/26 11:13:30;;;;;;;14.13;11.13;;;26.60;99.90;;;;;;4975781;28;20120;-91
2021/06/26 11:16:03;;;;;;;14.65;12.18;;;26.80;99.90;;;;;;4975477;28;20478;-92
2021/06/26 11:18:29;;;;;;;17.15;12.73;;;26.60;99.90;;;;;;4959623;28;20050;-92
2021/06/26 11:20:57;;;;;;;18.58;12.90;;;26.10;99.90;;;;;;4958930;28;20409;-91
2021/06/26 11:23:23;;;;;;;13.65;10.77;;;25.80;99.90;;;;;;4975679;28;20109;-91
2021/06/26 11:25:48;;;;;;;15.75;10.60;;;25.80;99.90;;;;;;4943474;28;20181;-92
2021/06/26 11:28:17;;;;;;;14.07;11.25;;;25.80;99.90;;;;;;4943780;28;20100;-90
2021/06/26 11:30:56;;;;;;;14.77;11.75;;;25.80;99.90;;;;;;4944236;28;20042;-90
2021/06/26 11:33:29;;;;;;;13.23;10.40;;;25.60;99.90;;;;;;4975441;28;20043;-91
2021/06/26 11:35:55;;;;;;;13.80;10.73;;;25.50;99.90;;;;;;4975202;28;20053;-90
2021/06/26 11:38:21;;;;;;;11.98;10.73;;;25.90;99.90;;;;;;4959400;28;20051;-90
2021/06/26 11:40:48;;;;;;;14.07;10.32;;;25.90;99.90;;;;;;4990352;28;20057;-91
2021/06/26 11:43:14;;;;;;;13.27;10.25;;;25.50;99.90;;;;;;4991433;28;20529;-89
2021/06/26 11:45:46;;;;;;;16.38;10.50;;;25.40;99.90;;;;;;4975162;28;20053;-89
2021/06/26 11:48:19;;;;;;;17.38;10.52;;;25.20;99.90;;;;;;4990603;28;20050;-89
2021/06/26 11:51:05;;;;;;;18.10;12.43;;;24.80;99.90;;;;;;4991726;28;20410;-90
2021/06/26 11:53:37;;;;;;;14.30;11.27;;;24.40;99.90;;;;;;4992913;28;20046;-90
2021/06/26 11:56:04;;;;;;;15.90;11.77;;;24.10;99.90;;;;;;4975592;28;20479;-90
2021/06/26 11:58:45;;;;;;;18.48;12.57;;;23.90;99.90;;;;;;4975220;28;20111;-90
2021/06/26 12:01:11;;;;;;;22.27;13.60;;;23.70;99.90;;;;;;4992038;28;20553;-91
2021/06/26 12:03:39;;;;;;;18.05;12.88;;;23.60;99.90;;;;;;4975468;28;20070;-89
2021/06/26 12:06:13;;;;;;;21.83;13.10;;;23.50;99.90;;;;;;4990617;28;20456;-91
2021/06/26 12:08:42;;;;;;;12.63;10.38;;;23.30;99.90;;;;;;4991481;28;20191;-89
2021/06/26 12:11:13;;;;;;;14.85;10.68;;;23.20;99.90;;;;;;4992077;28;20045;-89
2021/06/26 12:13:43;;;;;;;15.82;9.48;;;23.10;99.90;;;;;;4975336;28;20057;-90
2021/06/26 12:16:22;;;;;;;23.73;16.38;;;23.00;99.90;;;;;;4992048;28;20054;-89
2021/06/26 12:18:50;;;;;;;32.00;19.38;;;22.90;99.90;;;;;;4958435;28;20042;-90
2021/06/26 12:21:16;;;;;;;15.23;12.88;;;22.70;99.90;;;;;;4942093;28;20046;-89
2021/06/26 12:23:52;;;;;;;23.92;13.23;;;22.60;99.90;;;;;;4974032;28;20089;-90
2021/06/26 12:26:23;;;;;;;15.82;11.20;;;22.60;99.90;;;;;;4991692;28;20046;-90
2021/06/26 12:28:49;;;;;;;14.93;10.35;;;22.50;99.90;;;;;;4958816;28;20065;-90